Time;durP1;ratioP1;P1;durP2;ratioP2;P2;SDS_P1;SDS_P2;PMS_P1;PMS_P2;Temp;Humidity;BMP_temperature;BMP_pressure;BME280_temperature;BME280_humidity;BME280_pressure;Samples;Min_cycle;Max_cycle;Signal;HPM_P1;HPM_P2
2023/10/17 00:00:48;;;;;;;18.48;14.63;;;7.90;99.90;;;;;;2046529;28;20026;-74
2023/10/17 00:01:52;;;;;;;21.52;14.80;;;7.90;99.90;;;;;;2047173;28;20530;-74
2023/10/17 00:02:53;;;;;;;18.98;13.95;;;7.80;99.90;;;;;;2050895;28;20550;-74
2023/10/17 00:03:55;;;;;;;19.42;14.63;;;7.80;99.90;;;;;;2048349;28;20046;-75
2023/10/17 00:04:55;;;;;;;20.27;13.95;;;7.80;99.90;;;;;;2045502;28;20075;-75
2023/10/17 00:05:56;;;;;;;20.70;14.90;;;7.70;99.90;;;;;;2045198;28;20054;-74
2023/10/17 00:06:58;;;;;;;19.00;14.63;;;7.70;99.90;;;;;;2051233;28;20084;-74
2023/10/17 00:07:59;;;;;;;18.67;14.43;;;7.70;99.90;;;;;;2047393;28;20033;-74
2023/10/17 00:09:05;;;;;;;17.70;14.50;;;7.70;99.90;;;;;;2049972;28;20144;-74
2023/10/17 00:10:09;;;;;;;17.17;14.30;;;7.70;99.90;;;;;;2048632;28;20672;-74
2023/10/17 00:11:16;;;;;;;20.80;14.73;;;7.60;99.90;;;;;;2046652;28;20510;-74
2023/10/17 00:14:57;;;;;;;16.95;14.45;;;7.60;99.90;;;;;;2043676;28;20053;-74
2023/10/17 00:15:59;;;;;;;19.35;14.50;;;7.60;99.90;;;;;;2046363;28;20022;-74
2023/10/17 00:17:03;;;;;;;16.17;13.80;;;7.60;99.90;;;;;;2043894;28;20570;-73
2023/10/17 00:18:11;;;;;;;19.00;14.07;;;7.60;99.90;;;;;;2051191;28;20027;-73
2023/10/17 00:19:16;;;;;;;18.83;14.13;;;7.50;99.90;;;;;;2044946;28;20031;-73
2023/10/17 00:20:17;;;;;;;18.75;14.30;;;7.50;99.90;;;;;;2047173;28;20110;-73
2023/10/17 00:21:22;;;;;;;20.35;14.55;;;7.40;99.90;;;;;;2050220;28;20034;-73
2023/10/17 00:22:27;;;;;;;16.85;13.77;;;7.40;99.90;;;;;;2039473;28;20039;-73
2023/10/17 00:23:32;;;;;;;17.30;13.98;;;7.40;99.90;;;;;;2043990;28;20208;-74
2023/10/17 00:24:33;;;;;;;17.90;14.05;;;7.40;99.90;;;;;;2046355;28;20110;-74
2023/10/17 00:25:35;;;;;;;19.55;14.02;;;7.40;99.90;;;;;;2043849;28;20101;-74
2023/10/17 00:26:37;;;;;;;16.98;13.32;;;7.40;99.90;;;;;;2052898;28;20038;-74
2023/10/17 00:27:38;;;;;;;21.05;13.68;;;7.40;99.90;;;;;;2061978;28;20049;-74
2023/10/17 00:28:38;;;;;;;19.33;13.90;;;7.40;99.90;;;;;;2036589;28;20115;-74
2023/10/17 00:29:39;;;;;;;18.15;13.20;;;7.30;99.90;;;;;;2036632;29;20028;-73
2023/10/17 00:30:41;;;;;;;16.10;13.65;;;7.30;99.90;;;;;;2049544;28;20039;-73
2023/10/17 00:31:46;;;;;;;17.13;13.60;;;7.30;99.90;;;;;;2046378;28;20037;-73
2023/10/17 00:32:49;;;;;;;18.38;13.70;;;7.30;99.90;;;;;;2042578;28;20042;-74
2023/10/17 00:34:12;;;;;;;20.00;13.90;;;7.20;99.90;;;;;;2027358;28;20031;-73
2023/10/17 00:35:15;;;;;;;16.42;13.18;;;7.30;99.90;;;;;;2037699;29;20166;-73
2023/10/17 00:36:16;;;;;;;19.13;13.90;;;7.20;99.90;;;;;;2046948;28;20023;-74
2023/10/17 00:37:19;;;;;;;16.13;13.80;;;7.20;99.90;;;;;;2046351;28;20702;-73
2023/10/17 00:38:20;;;;;;;17.95;13.70;;;7.20;99.90;;;;;;2046827;28;20050;-73
2023/10/17 00:39:29;;;;;;;18.63;13.30;;;7.20;99.90;;;;;;2042868;28;20038;-74
2023/10/17 00:40:45;;;;;;;19.35;13.60;;;7.20;99.90;;;;;;2048392;28;20626;-74
2023/10/17 00:42:29;;;;;;;17.50;13.43;;;7.10;99.90;;;;;;2056774;28;20489;-74
2023/10/17 00:43:11;;;;;;;18.73;13.77;;;7.10;99.90;;;;;;2034647;29;20032;-74
2023/10/17 00:44:14;;;;;;;18.15;13.57;;;7.10;99.90;;;;;;2044372;28;20086;-74
2023/10/17 00:45:15;;;;;;;18.98;13.55;;;7.10;99.90;;;;;;2046754;28;20031;-74
2023/10/17 00:46:16;;;;;;;17.48;13.32;;;7.10;99.90;;;;;;2050155;28;20085;-74
2023/10/17 00:47:22;;;;;;;19.75;14.18;;;7.10;99.90;;;;;;2047098;28;20091;-73
2023/10/17 00:48:26;;;;;;;18.05;13.13;;;7.20;99.90;;;;;;2054625;28;20087;-74
2023/10/17 00:49:30;;;;;;;20.60;13.38;;;7.10;99.90;;;;;;2049989;28;20031;-74
2023/10/17 00:50:31;;;;;;;17.33;13.48;;;7.10;99.90;;;;;;2042692;28;20594;-73
2023/10/17 00:51:32;;;;;;;15.52;12.57;;;7.10;99.90;;;;;;2043724;28;20023;-73
2023/10/17 00:52:34;;;;;;;18.08;13.88;;;7.00;99.90;;;;;;2047104;28;20094;-73
2023/10/17 00:53:40;;;;;;;18.60;14.45;;;7.00;99.90;;;;;;2051029;28;20019;-73
2023/10/17 00:54:45;;;;;;;19.38;15.25;;;6.90;99.90;;;;;;2046573;28;20555;-74
2023/10/17 00:55:50;;;;;;;19.73;16.00;;;6.90;99.90;;;;;;2042094;28;20121;-74
2023/10/17 00:56:56;;;;;;;19.10;15.02;;;6.90;99.90;;;;;;2038794;28;20153;-74
2023/10/17 00:57:58;;;;;;;22.10;14.73;;;6.90;99.90;;;;;;2038650;28;20039;-74
2023/10/17 00:59:00;;;;;;;19.45;14.25;;;6.90;99.90;;;;;;2046205;28;20249;-73
2023/10/17 01:01:26;;;;;;;17.42;13.50;;;6.90;99.90;;;;;;2049882;28;20023;-73
2023/10/17 01:02:29;;;;;;;17.85;13.85;;;6.80;99.90;;;;;;2047079;28;20019;-73
2023/10/17 01:03:31;;;;;;;18.33;13.93;;;6.80;99.90;;;;;;2047205;28;20023;-74
2023/10/17 01:04:33;;;;;;;16.85;13.73;;;6.90;99.90;;;;;;2037806;29;20036;-73
2023/10/17 01:07:11;;;;;;;16.98;13.50;;;6.80;99.90;;;;;;2047720;28;20026;-73
2023/10/17 01:08:12;;;;;;;21.00;14.18;;;6.80;99.90;;;;;;2049379;28;20070;-74
2023/10/17 01:09:18;;;;;;;19.90;14.00;;;6.80;99.90;;;;;;2050322;28;20027;-74
2023/10/17 01:10:24;;;;;;;20.42;13.75;;;6.70;99.90;;;;;;2040880;28;20419;-74
2023/10/17 01:11:27;;;;;;;16.95;13.57;;;6.70;99.90;;;;;;2042389;29;20241;-73
2023/10/17 01:12:30;;;;;;;19.50;13.45;;;6.70;99.90;;;;;;2042493;28;20027;-74
2023/10/17 01:13:30;;;;;;;19.85;14.10;;;6.80;99.90;;;;;;2049958;28;20089;-74
2023/10/17 01:14:32;;;;;;;20.60;13.75;;;6.70;99.90;;;;;;2050151;28;20023;-73
2023/10/17 01:15:33;;;;;;;19.63;13.60;;;6.70;99.90;;;;;;2047022;28;20015;-73
2023/10/17 01:16:34;;;;;;;16.13;13.20;;;6.70;99.90;;;;;;2044349;28;20444;-74
2023/10/17 01:17:35;;;;;;;17.17;13.45;;;6.70;99.90;;;;;;2038161;28;20784;-74
2023/10/17 01:18:37;;;;;;;17.27;13.13;;;6.70;99.90;;;;;;2052950;28;20030;-74
2023/10/17 01:19:37;;;;;;;20.17;13.38;;;6.70;99.90;;;;;;2053951;28;20441;-74
2023/10/17 01:20:38;;;;;;;17.13;13.50;;;6.70;99.90;;;;;;2043129;28;20035;-74
2023/10/17 01:21:41;;;;;;;16.42;13.32;;;6.70;99.90;;;;;;2042606;28;20462;-74
2023/10/17 01:22:42;;;;;;;17.95;13.25;;;6.70;99.90;;;;;;2039997;28;20027;-74
2023/10/17 01:23:43;;;;;;;17.77;13.18;;;6.70;99.90;;;;;;2046714;28;20502;-74
2023/10/17 01:24:44;;;;;;;15.82;12.63;;;6.70;99.90;;;;;;2042841;28;20031;-73
2023/10/17 01:25:46;;;;;;;16.40;12.52;;;6.70;99.90;;;;;;2046692;28;20582;-74
2023/10/17 01:26:47;;;;;;;19.42;13.70;;;6.70;99.90;;;;;;2037712;28;20537;-73
2023/10/17 01:27:49;;;;;;;18.45;13.32;;;6.70;99.90;;;;;;2042068;28;20630;-74
2023/10/17 01:28:52;;;;;;;18.05;13.48;;;6.60;99.90;;;;;;2035097;28;20026;-74
2023/10/17 01:29:52;;;;;;;19.67;13.93;;;6.60;99.90;;;;;;2041761;28;20043;-74
2023/10/17 01:30:55;;;;;;;19.48;13.40;;;6.60;99.90;;;;;;2049678;28;20034;-73
2023/10/17 01:31:57;;;;;;;18.13;13.45;;;6.60;99.90;;;;;;2042427;28;20122;-74
2023/10/17 01:32:59;;;;;;;19.33;13.07;;;6.50;99.90;;;;;;2042052;28;20418;-75
2023/10/17 01:34:00;;;;;;;19.55;13.60;;;6.60;99.90;;;;;;2038007;28;20039;-74
2023/10/17 01:35:01;;;;;;;19.13;13.57;;;6.60;99.90;;;;;;2049893;28;20142;-74
2023/10/17 01:36:04;;;;;;;17.50;13.35;;;6.50;99.90;;;;;;2053007;28;20043;-74
2023/10/17 01:37:07;;;;;;;18.67;13.50;;;6.50;99.90;;;;;;2043363;28;20545;-74
2023/10/17 01:38:08;;;;;;;16.90;13.27;;;6.50;99.90;;;;;;2045950;28;20082;-74
2023/10/17 01:39:09;;;;;;;20.65;13.60;;;6.50;99.90;;;;;;2047397;28;20026;-74
2023/10/17 01:40:19;;;;;;;18.83;14.07;;;6.50;99.90;;;;;;2045887;28;20809;-73
2023/10/17 01:41:20;;;;;;;19.53;13.90;;;6.40;99.90;;;;;;2035407;29;20542;-74
2023/10/17 01:42:21;;;;;;;16.95;13.30;;;6.40;99.90;;;;;;2046772;28;20302;-73
2023/10/17 01:43:21;;;;;;;18.17;13.20;;;6.50;99.90;;;;;;2037796;29;20031;-74
2023/10/17 01:44:24;;;;;;;18.70;13.60;;;6.40;99.90;;;;;;2034480;28;20165;-73
2023/10/17 01:45:25;;;;;;;18.55;13.63;;;6.50;99.90;;;;;;2050671;28;20050;-74
2023/10/17 01:46:28;;;;;;;17.15;13.23;;;6.40;99.90;;;;;;2053646;28;20031;-73
2023/10/17 01:47:29;;;;;;;17.23;13.10;;;6.50;99.90;;;;;;2039342;28;20465;-74
2023/10/17 01:48:32;;;;;;;18.60;13.60;;;6.50;99.90;;;;;;2050328;28;20371;-74
2023/10/17 01:49:32;;;;;;;18.65;13.32;;;6.50;99.90;;;;;;2049773;28;20026;-74
2023/10/17 01:50:33;;;;;;;19.80;14.00;;;6.40;99.90;;;;;;2045534;28;20496;-74
2023/10/17 01:51:34;;;;;;;17.00;13.30;;;6.40;99.90;;;;;;2040048;28;20637;-73
2023/10/17 01:52:35;;;;;;;18.88;13.65;;;6.40;99.90;;;;;;2046574;28;20063;-73
2023/10/17 01:53:38;;;;;;;19.23;13.57;;;6.30;99.90;;;;;;2050792;28;20034;-73
2023/10/17 01:54:39;;;;;;;20.15;13.52;;;6.30;99.90;;;;;;2043380;28;20572;-74
2023/10/17 01:55:42;;;;;;;17.00;13.20;;;6.30;99.90;;;;;;2047305;28;20031;-73
2023/10/17 01:56:47;;;;;;;16.33;13.02;;;6.30;99.90;;;;;;2045649;28;20459;-75
2023/10/17 01:57:48;;;;;;;18.58;13.40;;;6.30;99.90;;;;;;2049778;28;20060;-74
2023/10/17 01:58:49;;;;;;;17.35;13.20;;;6.30;99.90;;;;;;2041862;29;20042;-74
2023/10/17 01:59:49;;;;;;;18.42;13.23;;;6.30;99.90;;;;;;2046026;28;20034;-73
2023/10/17 02:00:54;;;;;;;19.27;13.23;;;6.30;99.90;;;;;;2059076;28;20035;-74
2023/10/17 02:01:57;;;;;;;18.17;12.27;;;6.20;99.90;;;;;;2060870;28;20018;-75
2023/10/17 02:02:57;;;;;;;15.82;12.48;;;6.20;99.90;;;;;;2042714;28;20038;-75
2023/10/17 02:04:03;;;;;;;17.92;12.82;;;6.20;99.90;;;;;;2041430;28;20454;-75
2023/10/17 02:05:06;;;;;;;15.82;12.43;;;6.20;99.90;;;;;;2037243;28;20058;-74
2023/10/17 02:06:16;;;;;;;17.13;12.30;;;6.20;99.90;;;;;;2046893;28;20027;-75
2023/10/17 02:07:18;;;;;;;;;;;6.20;99.90;;;;;;2049890;28;20633;-75
2023/10/17 02:08:21;;;;;;;18.42;13.00;;;6.20;99.90;;;;;;2045970;28;20446;-75
2023/10/17 02:10:29;;;;;;;17.55;12.35;;;6.10;99.90;;;;;;2046611;28;20575;-75
2023/10/17 02:11:40;;;;;;;22.67;17.65;;;6.20;99.90;;;;;;2035685;28;20191;-75
2023/10/17 02:12:42;;;;;;;15.88;12.60;;;6.20;99.90;;;;;;2048550;28;20807;-75
2023/10/17 02:13:45;;;;;;;17.92;12.68;;;6.20;99.90;;;;;;2043985;28;20380;-79
2023/10/17 02:14:45;;;;;;;17.45;12.82;;;6.10;99.90;;;;;;2044118;28;20023;-79
2023/10/17 02:15:50;;;;;;;16.83;12.82;;;6.10;99.90;;;;;;2047771;28;20027;-79
2023/10/17 02:16:52;;;;;;;16.30;12.40;;;6.10;99.90;;;;;;2050159;28;20123;-79
2023/10/17 02:17:54;;;;;;;17.70;12.30;;;6.10;99.90;;;;;;2043097;28;20026;-79
2023/10/17 02:18:55;;;;;;;17.88;12.60;;;6.00;99.90;;;;;;2041965;28;20020;-78
2023/10/17 02:19:59;;;;;;;15.38;12.32;;;6.10;99.90;;;;;;2046402;28;20031;-79
2023/10/17 02:21:05;;;;;;;16.45;12.65;;;6.10;99.90;;;;;;2049880;28;20081;-76
2023/10/17 02:22:09;;;;;;;20.40;12.55;;;6.00;99.90;;;;;;2042540;28;20053;-79
2023/10/17 02:23:19;;;;;;;17.23;12.40;;;6.00;99.90;;;;;;2047747;28;20031;-79
2023/10/17 02:24:20;;;;;;;17.10;12.30;;;6.00;99.90;;;;;;2048311;28;20031;-79
2023/10/17 02:25:28;;;;;;;17.00;12.88;;;6.10;99.90;;;;;;2047470;28;20656;-79
2023/10/17 02:26:29;;;;;;;17.35;12.77;;;6.00;99.90;;;;;;2043162;28;20471;-78
2023/10/17 02:27:29;;;;;;;18.60;13.15;;;6.00;99.90;;;;;;2049943;28;20073;-79
2023/10/17 02:28:44;;;;;;;20.13;13.52;;;6.00;99.90;;;;;;2042661;28;20020;-78
2023/10/17 02:29:47;;;;;;;18.83;12.90;;;6.00;99.90;;;;;;2031829;29;20028;-78
2023/10/17 02:30:48;;;;;;;17.90;12.73;;;6.00;99.90;;;;;;2046286;28;20050;-78
2023/10/17 02:31:52;;;;;;;17.10;13.35;;;5.90;99.90;;;;;;2045798;28;20035;-78
2023/10/17 02:32:56;;;;;;;19.15;13.50;;;5.90;99.90;;;;;;2050052;28;20620;-78
2023/10/17 02:33:57;;;;;;;19.02;13.13;;;5.90;99.90;;;;;;2042300;28;20446;-78
2023/10/17 02:34:58;;;;;;;16.90;13.10;;;5.90;99.90;;;;;;2045788;28;20053;-78
2023/10/17 02:36:08;;;;;;;20.35;13.50;;;5.90;99.90;;;;;;2049626;28;20502;-78
2023/10/17 02:37:16;;;;;;;18.73;13.95;;;5.90;99.90;;;;;;2039654;28;20059;-78
2023/10/17 02:38:17;;;;;;;18.67;13.45;;;5.90;99.90;;;;;;2059935;28;20034;-78
2023/10/17 02:39:20;;;;;;;19.65;14.48;;;5.90;99.90;;;;;;2052318;28;20693;-77
2023/10/17 02:40:21;;;;;;;19.20;14.60;;;5.80;99.90;;;;;;2046145;28;20500;-77
2023/10/17 02:41:22;;;;;;;18.10;13.90;;;5.80;99.90;;;;;;2048663;28;20035;-78
2023/10/17 02:42:23;;;;;;;18.65;14.77;;;5.90;99.90;;;;;;2046604;28;20094;-77
2023/10/17 02:43:23;;;;;;;19.90;14.07;;;5.80;99.90;;;;;;2045164;28;20072;-77
2023/10/17 02:44:24;;;;;;;20.65;14.63;;;5.80;99.90;;;;;;2055417;28;20118;-77
2023/10/17 02:45:27;;;;;;;21.38;16.10;;;5.80;99.90;;;;;;2047630;28;20026;-78
2023/10/17 02:46:27;;;;;;;20.35;15.77;;;5.90;99.90;;;;;;2041146;28;20031;-77
2023/10/17 02:47:28;;;;;;;20.65;15.38;;;5.90;99.90;;;;;;2035475;29;20027;-78
2023/10/17 02:48:29;;;;;;;21.58;16.30;;;5.90;99.90;;;;;;2039290;28;20077;-78
2023/10/17 02:49:36;;;;;;;21.75;15.88;;;5.80;99.90;;;;;;2051648;28;20022;-79
2023/10/17 02:51:43;;;;;;;22.42;15.60;;;5.80;99.90;;;;;;2056489;28;20088;-79
2023/10/17 02:52:47;;;;;;;21.15;15.80;;;5.80;99.90;;;;;;2043095;28;20027;-78
2023/10/17 02:53:52;;;;;;;19.00;15.15;;;5.80;99.90;;;;;;2046193;28;20034;-79
2023/10/17 02:54:56;;;;;;;26.60;15.73;;;5.90;99.90;;;;;;2051652;28;20030;-78
2023/10/17 02:55:57;;;;;;;19.85;15.02;;;5.90;99.90;;;;;;2051282;28;20023;-78
2023/10/17 02:56:58;;;;;;;20.27;14.90;;;5.90;99.90;;;;;;2054729;28;20031;-78
2023/10/17 02:57:59;;;;;;;21.90;14.85;;;5.90;99.90;;;;;;2047965;28;20030;-77
2023/10/17 02:59:04;;;;;;;20.45;15.00;;;5.90;99.90;;;;;;2051899;28;20034;-78
2023/10/17 03:01:27;;;;;;;20.38;15.32;;;5.90;99.90;;;;;;2054105;28;20038;-78
2023/10/17 03:02:36;;;;;;;20.60;14.02;;;5.90;99.90;;;;;;2045600;28;20027;-79
2023/10/17 03:03:39;;;;;;;21.52;15.13;;;5.90;99.90;;;;;;2037857;28;20126;-78
2023/10/17 03:04:42;;;;;;;18.88;14.38;;;5.90;99.90;;;;;;2054339;28;20066;-79
2023/10/17 03:05:44;;;;;;;20.70;14.50;;;5.90;99.90;;;;;;2049218;28;20023;-79
2023/10/17 03:06:45;;;;;;;22.05;14.52;;;5.90;99.90;;;;;;2043587;28;20027;-79
2023/10/17 03:07:55;;;;;;;18.70;15.25;;;5.80;99.90;;;;;;2033391;29;20036;-80
2023/10/17 03:09:00;;;;;;;22.58;15.63;;;5.80;99.90;;;;;;2043966;28;20028;-79
2023/10/17 03:10:02;;;;;;;22.05;15.07;;;5.80;99.90;;;;;;2051955;28;20031;-79
2023/10/17 03:11:15;;;;;;;21.58;16.15;;;5.80;99.90;;;;;;2041552;28;20027;-79
2023/10/17 03:12:22;;;;;;;17.83;15.50;;;5.80;99.90;;;;;;2042912;28;20079;-79
2023/10/17 03:13:23;;;;;;;20.83;15.70;;;5.80;99.90;;;;;;2042719;28;20193;-79
2023/10/17 03:14:40;;;;;;;20.98;15.40;;;5.80;99.90;;;;;;2040605;28;20685;-79
2023/10/17 03:15:46;;;;;;;21.67;14.90;;;5.80;99.90;;;;;;2035871;29;20348;-79
2023/10/17 03:16:52;;;;;;;22.48;14.70;;;5.80;99.90;;;;;;2044365;28;20092;-78
2023/10/17 03:17:54;;;;;;;18.42;14.20;;;5.80;99.90;;;;;;2048235;28;20470;-79
2023/10/17 03:18:58;;;;;;;18.67;14.27;;;5.80;99.90;;;;;;2047375;28;20027;-77
2023/10/17 03:19:59;;;;;;;19.08;14.60;;;5.80;99.90;;;;;;2042988;28;20106;-77
2023/10/17 03:21:00;;;;;;;19.92;14.90;;;5.80;99.90;;;;;;2050741;28;20482;-77
2023/10/17 03:22:16;;;;;;;18.63;12.93;;;5.80;99.90;;;;;;2047182;28;20023;-78
2023/10/17 03:23:27;;;;;;;17.60;12.85;;;5.90;99.90;;;;;;2045837;28;20206;-78
2023/10/17 03:24:41;;;;;;;25.23;12.90;;;6.00;99.90;;;;;;2048366;28;20027;-78
2023/10/17 03:25:46;;;;;;;28.48;12.73;;;6.00;99.90;;;;;;2043404;28;20031;-78
2023/10/17 03:27:03;;;;;;;34.70;11.95;;;6.00;99.90;;;;;;2037686;28;20032;-77
2023/10/17 03:28:15;;;;;;;39.17;11.98;;;6.00;99.90;;;;;;2053250;28;20089;-78
2023/10/17 03:29:19;;;;;;;19.13;11.73;;;6.20;99.90;;;;;;2049659;28;20030;-78
2023/10/17 03:30:19;;;;;;;33.22;11.35;;;6.30;99.90;;;;;;2049354;28;20030;-78
2023/10/17 03:31:20;;;;;;;17.75;11.30;;;6.70;99.90;;;;;;2042921;29;20191;-78
2023/10/17 03:32:23;;;;;;;16.65;11.07;;;6.70;99.90;;;;;;2043718;28;20031;-77
2023/10/17 03:33:27;;;;;;;15.90;9.98;;;6.80;99.90;;;;;;2047938;28;20618;-78
2023/10/17 03:34:35;;;;;;;18.02;10.50;;;6.80;99.90;;;;;;2046170;28;20046;-78
2023/10/17 03:35:35;;;;;;;12.80;9.68;;;6.80;99.90;;;;;;2044049;28;20037;-78
2023/10/17 03:36:41;;;;;;;14.40;9.90;;;6.70;99.90;;;;;;2048000;28;20019;-78
2023/10/17 03:37:41;;;;;;;14.07;9.85;;;6.70;99.90;;;;;;2043418;28;20118;-78
2023/10/17 03:38:42;;;;;;;14.27;9.98;;;6.60;99.90;;;;;;2037821;28;20091;-78
2023/10/17 03:39:51;;;;;;;14.88;10.25;;;6.60;99.90;;;;;;2047003;28;20027;-78
2023/10/17 03:40:53;;;;;;;14.23;10.70;;;6.80;99.90;;;;;;2048376;28;20069;-78
2023/10/17 03:41:57;;;;;;;16.45;10.55;;;6.80;99.90;;;;;;2039114;29;20074;-78
2023/10/17 03:43:08;;;;;;;14.73;9.98;;;6.90;99.90;;;;;;2038384;28;20035;-78
2023/10/17 03:44:09;;;;;;;17.95;10.00;;;7.00;99.90;;;;;;2031193;29;20020;-78
2023/10/17 03:45:18;;;;;;;13.15;9.57;;;7.00;99.90;;;;;;2034082;29;20098;-78
2023/10/17 03:46:24;;;;;;;14.07;10.20;;;7.00;99.90;;;;;;2045734;28;20043;-78
2023/10/17 03:47:27;;;;;;;16.00;10.63;;;7.00;99.90;;;;;;2043069;28;20110;-79
2023/10/17 03:48:32;;;;;;;18.23;10.02;;;7.00;99.90;;;;;;2043235;28;20098;-78
2023/10/17 03:49:36;;;;;;;15.00;10.15;;;7.00;99.90;;;;;;2038307;28;20027;-77
2023/10/17 03:50:57;;;;;;;18.83;10.95;;;7.00;99.90;;;;;;2040705;28;20023;-78
2023/10/17 03:52:03;;;;;;;;;;;7.00;99.90;;;;;;2033189;29;20133;-78
2023/10/17 03:53:15;;;;;;;13.85;9.73;;;6.80;99.90;;;;;;2035979;28;19910;-79
2023/10/17 03:54:18;;;;;;;14.15;9.90;;;6.60;99.90;;;;;;2045675;28;20121;-78
2023/10/17 03:55:21;;;;;;;13.65;10.10;;;6.50;99.90;;;;;;2051538;28;20030;-80
2023/10/17 03:56:24;;;;;;;14.48;9.75;;;6.40;99.90;;;;;;2037562;28;20019;-79
2023/10/17 03:57:28;;;;;;;16.05;10.82;;;6.30;99.90;;;;;;2033215;29;20574;-78
2023/10/17 03:59:38;;;;;;;14.90;11.00;;;6.10;99.90;;;;;;2054573;28;20086;-79
2023/10/17 04:00:44;;;;;;;14.85;10.93;;;6.00;99.90;;;;;;2050903;28;20107;-77
2023/10/17 04:01:48;;;;;;;16.25;10.77;;;5.90;99.90;;;;;;2048088;28;20543;-78
2023/10/17 04:02:49;;;;;;;15.35;11.18;;;5.90;99.90;;;;;;2051635;28;20479;-77
2023/10/17 04:03:54;;;;;;;15.43;11.20;;;5.80;99.90;;;;;;2051435;28;20030;-80
2023/10/17 04:04:55;;;;;;;18.27;11.52;;;5.80;99.90;;;;;;2050322;28;20085;-78
2023/10/17 04:06:02;;;;;;;16.58;10.25;;;5.90;99.90;;;;;;2049479;28;20082;-79
2023/10/17 04:07:06;;;;;;;14.13;10.48;;;5.90;99.90;;;;;;2047778;28;20027;-79
2023/10/17 04:08:09;;;;;;;16.70;10.77;;;5.90;99.90;;;;;;2054276;28;20030;-79
2023/10/17 04:10:49;;;;;;;16.05;10.75;;;5.80;99.90;;;;;;2034029;29;20069;-78
2023/10/17 04:11:49;;;;;;;13.20;10.40;;;5.80;99.90;;;;;;2039316;28;20127;-78
2023/10/17 04:13:17;;;;;;;16.08;10.60;;;5.80;99.90;;;;;;2043098;28;20181;-78
2023/10/17 04:14:17;;;;;;;15.65;10.10;;;5.80;99.90;;;;;;2036222;28;20034;-80
2023/10/17 04:15:18;;;;;;;14.25;10.27;;;5.80;99.90;;;;;;2043125;28;20035;-79
2023/10/17 04:16:27;;;;;;;14.77;11.15;;;5.70;99.90;;;;;;2038067;28;20023;-78
2023/10/17 04:17:29;;;;;;;18.67;11.40;;;5.80;99.90;;;;;;2050057;28;20094;-80
2023/10/17 04:18:30;;;;;;;16.48;11.25;;;5.80;99.90;;;;;;2047832;28;20570;-77
2023/10/17 04:19:39;;;;;;;18.48;11.57;;;5.70;99.90;;;;;;2048653;28;20418;-78
2023/10/17 04:20:42;;;;;;;16.98;11.10;;;5.80;99.90;;;;;;2051174;28;20156;-77
2023/10/17 04:21:51;;;;;;;13.98;11.23;;;5.80;99.90;;;;;;2039781;28;20035;-78
2023/10/17 04:22:52;;;;;;;15.50;10.93;;;5.80;99.90;;;;;;2047549;28;20035;-78
2023/10/17 04:23:59;;;;;;;15.85;11.00;;;5.80;99.90;;;;;;2040455;28;20038;-79
2023/10/17 04:25:00;;;;;;;14.73;10.85;;;5.80;99.90;;;;;;2043855;28;20035;-78
2023/10/17 04:26:03;;;;;;;12.60;10.00;;;5.80;99.90;;;;;;2044815;28;20039;-78
2023/10/17 04:28:16;;;;;;;14.98;10.52;;;5.90;99.90;;;;;;2038687;28;20131;-77
2023/10/17 04:29:21;;;;;;;16.55;11.10;;;5.90;99.90;;;;;;2042596;28;20070;-77
2023/10/17 04:30:22;;;;;;;16.10;11.07;;;5.90;99.90;;;;;;2047257;28;20023;-78
2023/10/17 04:31:26;;;;;;;14.20;10.10;;;5.90;99.90;;;;;;2036254;29;20031;-78
2023/10/17 04:32:29;;;;;;;15.55;10.40;;;5.90;99.90;;;;;;2039049;28;20024;-78
2023/10/17 04:33:29;;;;;;;15.15;10.02;;;5.90;99.90;;;;;;2042264;28;20026;-78
2023/10/17 04:34:33;;;;;;;14.02;9.98;;;5.90;99.90;;;;;;2039963;28;20122;-78
2023/10/17 04:35:36;;;;;;;15.95;10.10;;;5.90;99.90;;;;;;2053113;28;20518;-78
2023/10/17 04:36:37;;;;;;;17.38;10.32;;;5.90;99.90;;;;;;2043218;28;20515;-78
2023/10/17 04:37:44;;;;;;;12.10;9.82;;;5.90;99.90;;;;;;2039010;28;20064;-77
2023/10/17 04:38:46;;;;;;;12.38;9.75;;;5.90;99.90;;;;;;2047834;28;20038;-79
2023/10/17 04:39:50;;;;;;;13.43;9.80;;;5.90;99.90;;;;;;2043047;28;20031;-78
2023/10/17 04:43:55;;;;;;;14.98;10.40;;;5.90;99.90;;;;;;2010905;29;20547;-75
2023/10/17 04:45:05;;;;;;;14.93;10.60;;;6.00;99.90;;;;;;2034465;28;20143;-79
2023/10/17 04:46:08;;;;;;;16.90;10.55;;;6.00;99.90;;;;;;2051092;28;20037;-77
2023/10/17 04:48:46;;;;;;;16.33;10.10;;;6.10;99.90;;;;;;2031858;28;20392;-78
2023/10/17 04:49:44;;;;;;;14.05;10.50;;;6.10;99.90;;;;;;2042128;28;20039;-78
2023/10/17 04:50:45;;;;;;;14.77;10.32;;;6.10;99.90;;;;;;2047510;28;20035;-77
2023/10/17 04:51:46;;;;;;;13.82;10.40;;;6.10;99.90;;;;;;2040465;28;20054;-77
2023/10/17 04:52:47;;;;;;;13.60;10.20;;;6.20;99.90;;;;;;2037327;29;20473;-77
2023/10/17 04:53:48;;;;;;;14.90;10.13;;;6.10;99.90;;;;;;2044793;28;20035;-79
2023/10/17 04:54:52;;;;;;;16.25;10.68;;;6.10;99.90;;;;;;2057941;28;20086;-80
2023/10/17 04:56:11;;;;;;;16.67;11.27;;;6.20;99.90;;;;;;2046893;28;20043;-78
2023/10/17 04:57:18;;;;;;;17.05;10.95;;;6.10;99.90;;;;;;2046549;28;20031;-79
2023/10/17 04:58:30;;;;;;;16.70;10.48;;;6.10;99.90;;;;;;2033222;29;20068;-79
2023/10/17 04:59:43;;;;;;;15.75;10.55;;;6.10;99.90;;;;;;2039964;28;20035;-78
2023/10/17 05:01:17;;;;;;;15.15;10.13;;;6.10;99.90;;;;;;2038622;28;20036;-78
2023/10/17 05:03:32;;;;;;;16.13;10.02;;;6.10;99.90;;;;;;2041484;28;20042;-78
2023/10/17 05:04:51;;;;;;;14.10;10.25;;;6.10;99.90;;;;;;2046878;28;20439;-78
2023/10/17 05:06:18;;;;;;;24.90;16.02;;;6.10;99.90;;;;;;2031704;28;20046;-76
2023/10/17 05:08:33;;;;;;;13.80;9.73;;;6.10;99.90;;;;;;2039401;28;20072;-77
2023/10/17 06:16:51;;;;;;;16.08;9.68;;;6.10;99.90;;;;;;2043169;28;20038;-78
2023/10/17 06:17:20;;;;;;;22.52;12.60;;;6.50;99.90;;;;;;2046427;28;20161;-75
2023/10/17 06:18:26;;;;;;;22.33;12.50;;;6.60;99.90;;;;;;2051266;28;20089;-75
2023/10/17 06:19:27;;;;;;;20.05;11.60;;;6.60;99.90;;;;;;2049459;28;20053;-73
2023/10/17 06:26:05;;;;;;;20.40;12.40;;;6.60;99.90;;;;;;2050348;28;20041;-74
2023/10/17 06:30:29;;;;;;;25.00;12.75;;;6.70;99.90;;;;;;2034092;29;20135;-74
2023/10/17 06:31:42;;;;;;;20.58;12.68;;;6.80;99.90;;;;;;2035969;29;20118;-74
2023/10/17 06:32:48;;;;;;;21.40;12.30;;;6.80;99.90;;;;;;2049136;28;20050;-76
2023/10/17 06:33:52;;;;;;;23.48;12.50;;;6.80;99.90;;;;;;2047291;28;20405;-74
2023/10/17 06:35:03;;;;;;;25.83;12.20;;;6.80;99.90;;;;;;2040131;28;20047;-74
2023/10/17 06:36:13;;;;;;;23.80;12.02;;;6.80;99.90;;;;;;2043288;28;20027;-74
2023/10/17 06:37:20;;;;;;;24.65;12.52;;;6.90;99.90;;;;;;2033290;29;20397;-75
2023/10/17 06:38:28;;;;;;;22.08;12.30;;;6.90;99.90;;;;;;2043841;28;20038;-74
2023/10/17 06:39:45;;;;;;;22.35;12.15;;;6.90;99.90;;;;;;2045747;28;20119;-74
2023/10/17 06:40:46;;;;;;;25.30;12.30;;;6.90;99.90;;;;;;2047977;28;20065;-74
2023/10/17 06:41:47;;;;;;;24.42;12.48;;;7.00;99.90;;;;;;2035743;29;20733;-74
2023/10/17 06:42:58;;;;;;;22.38;12.20;;;7.00;99.90;;;;;;2031234;28;20044;-74
2023/10/17 06:44:04;;;;;;;;;;;7.00;99.90;;;;;;2050702;28;20070;-74
2023/10/17 06:45:09;;;;;;;20.35;11.93;;;7.00;99.90;;;;;;2050184;28;19910;-74
2023/10/17 06:46:12;;;;;;;23.33;12.13;;;7.00;99.90;;;;;;2038817;28;20522;-74
2023/10/17 06:47:21;;;;;;;22.67;12.13;;;7.00;99.90;;;;;;2029152;29;20449;-73
2023/10/17 06:48:31;;;;;;;22.45;12.02;;;7.00;99.90;;;;;;2044418;28;20040;-74
2023/10/17 06:51:29;;;;;;;18.00;11.60;;;7.10;99.90;;;;;;2051278;28;20026;-75
2023/10/17 06:53:15;;;;;;;22.15;12.18;;;7.20;99.90;;;;;;2041634;28;20126;-75
2023/10/17 06:54:24;;;;;;;22.63;12.05;;;7.20;99.90;;;;;;2033451;28;20511;-74
2023/10/17 06:55:43;;;;;;;21.92;12.27;;;7.30;99.90;;;;;;2031529;29;20059;-75
2023/10/17 06:56:44;;;;;;;23.67;12.10;;;7.30;99.90;;;;;;2043009;28;20692;-75
2023/10/17 06:57:45;;;;;;;20.85;11.93;;;7.30;99.90;;;;;;2051236;28;20681;-73
2023/10/17 06:58:47;;;;;;;21.02;12.40;;;7.30;99.90;;;;;;2039009;28;20035;-76
2023/10/17 06:59:52;;;;;;;19.48;11.98;;;7.30;99.90;;;;;;2039730;28;20114;-74
2023/10/17 07:00:53;;;;;;;20.77;11.93;;;7.40;99.90;;;;;;2043531;28;20031;-73
2023/10/17 07:03:13;;;;;;;20.05;11.70;;;7.40;99.90;;;;;;2045542;28;20043;-73
2023/10/17 07:04:13;;;;;;;24.98;12.43;;;7.50;99.90;;;;;;2051576;28;20042;-75
2023/10/17 07:05:21;;;;;;;21.90;11.95;;;7.50;99.90;;;;;;2048444;28;20038;-74
2023/10/17 07:06:26;;;;;;;21.08;11.50;;;7.50;99.90;;;;;;2051572;28;20648;-74
2023/10/17 07:07:39;;;;;;;17.67;11.48;;;7.50;99.90;;;;;;2044471;28;20035;-74
2023/10/17 07:08:41;;;;;;;18.90;11.02;;;7.40;99.90;;;;;;2041028;28;20019;-74
2023/10/17 07:09:42;;;;;;;18.63;10.40;;;7.50;99.90;;;;;;2042749;28;20491;-74
2023/10/17 07:12:04;;;;;;;21.00;11.32;;;7.50;99.90;;;;;;2051632;28;20046;-75